Time;durP1;ratioP1;P1;durP2;ratioP2;P2;SDS_P1;SDS_P2;PMS_P1;PMS_P2;Temp;Humidity;BMP_temperature;BMP_pressure;BME280_temperature;BME280_humidity;BME280_pressure;Samples;Min_cycle;Max_cycle;Signal;HPM_P1;HPM_P2
2023/12/03 00:01:07;;;;;;;0.10;0.10;;;;;;;;;;5094336;28;20039;-88
2023/12/03 00:03:33;;;;;;;0.22;0.22;;;;;;;;;;5111464;28;20120;-88
2023/12/03 00:05:59;;;;;;;0.10;0.10;;;;;;;;;;5094336;28;20040;-88
2023/12/03 00:08:25;;;;;;;0.10;0.10;;;;;;;;;;5094412;28;20292;-88
2023/12/03 00:10:51;;;;;;;0.10;0.10;;;;;;;;;;5094269;28;20387;-88
2023/12/03 00:13:17;;;;;;;0.10;0.10;;;;;;;;;;5094263;28;20449;-88
2023/12/03 00:15:43;;;;;;;0.10;0.10;;;;;;;;;;5094354;28;20050;-88
2023/12/03 00:18:09;;;;;;;2.17;0.28;;;;;;;;;;5094291;28;20039;-88
2023/12/03 00:20:35;;;;;;;0.10;0.10;;;;;;;;;;5094758;28;20487;-88
2023/12/03 00:23:03;;;;;;;0.10;0.10;;;;;;;;;;5098432;28;20103;-88
2023/12/03 00:25:29;;;;;;;0.10;0.10;;;;;;;;;;5098265;28;20043;-87
2023/12/03 00:27:55;;;;;;;0.10;0.10;;;;;;;;;;5098310;28;20097;-88
2023/12/03 00:30:21;;;;;;;0.10;0.10;;;;;;;;;;5115181;28;20071;-88
2023/12/03 00:32:47;;;;;;;0.30;0.30;;;;;;;;;;5098070;28;20044;-88
2023/12/03 00:35:14;;;;;;;0.10;0.10;;;;;;;;;;5098299;28;20390;-88
2023/12/03 00:37:40;;;;;;;0.20;0.20;;;;;;;;;;5098554;28;20047;-88
2023/12/03 00:40:07;;;;;;;0.10;0.10;;;;;;;;;;5114889;28;20043;-88
2023/12/03 00:42:33;;;;;;;0.10;0.10;;;;;;;;;;5098267;28;20055;-88
2023/12/03 00:44:59;;;;;;;0.10;0.10;;;;;;;;;;5114936;28;20044;-87
2023/12/03 00:47:24;;;;;;;0.10;0.10;;;;;;;;;;5097953;28;20085;-88
2023/12/03 00:49:50;;;;;;;0.20;0.20;;;;;;;;;;5114969;28;20043;-87
2023/12/03 00:52:16;;;;;;;0.52;0.30;;;;;;;;;;5097723;28;20043;-88
2023/12/03 00:54:42;;;;;;;0.10;0.10;;;;;;;;;;5097790;28;20036;-87
2023/12/03 00:57:08;;;;;;;0.20;0.20;;;;;;;;;;5097770;28;20394;-87
2023/12/03 00:59:34;;;;;;;0.17;0.17;;;;;;;;;;5097872;28;20074;-87
2023/12/03 01:02:00;;;;;;;0.15;0.15;;;;;;;;;;5097623;28;20107;-87
2023/12/03 01:04:26;;;;;;;0.10;0.10;;;;;;;;;;5114319;28;20048;-88
2023/12/03 01:06:52;;;;;;;0.10;0.10;;;;;;;;;;5097363;28;20042;-87
2023/12/03 01:09:18;;;;;;;0.20;0.20;;;;;;;;;;5097508;28;20043;-86
2023/12/03 01:11:44;;;;;;;0.10;0.10;;;;;;;;;;5097415;28;20036;-87
2023/12/03 01:14:10;;;;;;;0.10;0.10;;;;;;;;;;5097192;28;20040;-87
2023/12/03 01:16:36;;;;;;;0.20;0.20;;;;;;;;;;5114428;28;20031;-88
2023/12/03 01:19:02;;;;;;;0.10;0.10;;;;;;;;;;5114253;28;20039;-88
2023/12/03 01:21:28;;;;;;;0.10;0.10;;;;;;;;;;5097232;28;20047;-87
2023/12/03 01:23:54;;;;;;;0.20;0.20;;;;;;;;;;5097439;28;20119;-88
2023/12/03 01:26:20;;;;;;;0.22;0.22;;;;;;;;;;5097228;28;20111;-88
2023/12/03 01:28:46;;;;;;;0.10;0.10;;;;;;;;;;5097342;28;20039;-87
2023/12/03 01:31:12;;;;;;;0.10;0.10;;;;;;;;;;5096990;28;20042;-88
2023/12/03 01:33:38;;;;;;;0.10;0.10;;;;;;;;;;5113849;28;20047;-88
2023/12/03 01:36:04;;;;;;;0.10;0.10;;;;;;;;;;5096849;28;20035;-88
2023/12/03 01:38:30;;;;;;;0.10;0.10;;;;;;;;;;5113928;28;20118;-88
2023/12/03 01:40:56;;;;;;;0.10;0.10;;;;;;;;;;5096891;28;20124;-88
2023/12/03 01:43:22;;;;;;;0.10;0.10;;;;;;;;;;5096924;28;20383;-88
2023/12/03 01:45:48;;;;;;;0.10;0.10;;;;;;;;;;5096850;28;20044;-88
2023/12/03 01:48:14;;;;;;;0.10;0.10;;;;;;;;;;5096925;28;20039;-88
2023/12/03 01:50:41;;;;;;;0.10;0.10;;;;;;;;;;5097140;28;20138;-88
2023/12/03 01:53:07;;;;;;;0.10;0.10;;;;;;;;;;5097072;28;20047;-89
2023/12/03 01:55:33;;;;;;;0.10;0.10;;;;;;;;;;5096910;28;20074;-88
2023/12/03 01:57:59;;;;;;;0.10;0.10;;;;;;;;;;5096941;28;20040;-89
2023/12/03 02:00:25;;;;;;;0.10;0.10;;;;;;;;;;5113564;28;20086;-89
2023/12/03 02:02:51;;;;;;;0.10;0.10;;;;;;;;;;5096329;28;20208;-88
2023/12/03 02:05:17;;;;;;;0.13;0.13;;;;;;;;;;5096596;28;20403;-89
2023/12/03 02:07:43;;;;;;;0.10;0.10;;;;;;;;;;5096579;28;20035;-88
2023/12/03 02:10:09;;;;;;;0.10;0.10;;;;;;;;;;5096583;28;20126;-89
2023/12/03 02:12:35;;;;;;;0.10;0.10;;;;;;;;;;5096211;28;20075;-88
2023/12/03 02:15:01;;;;;;;0.10;0.10;;;;;;;;;;5096290;28;20549;-87
2023/12/03 02:17:27;;;;;;;0.22;0.22;;;;;;;;;;5113075;28;20039;-88
2023/12/03 02:19:53;;;;;;;0.10;0.10;;;;;;;;;;5096414;28;20714;-88
2023/12/03 02:22:19;;;;;;;0.10;0.10;;;;;;;;;;5096352;28;20050;-88
2023/12/03 02:24:45;;;;;;;0.15;0.15;;;;;;;;;;5113091;28;20031;-88
2023/12/03 02:27:11;;;;;;;0.30;0.30;;;;;;;;;;5096516;28;20054;-88
2023/12/03 02:29:37;;;;;;;0.20;0.20;;;;;;;;;;5112812;28;20040;-88
2023/12/03 02:32:03;;;;;;;0.10;0.10;;;;;;;;;;5095786;28;20039;-88
2023/12/03 02:34:29;;;;;;;0.10;0.10;;;;;;;;;;5095818;28;20267;-88
2023/12/03 02:36:55;;;;;;;0.10;0.10;;;;;;;;;;5095897;28;20270;-88
2023/12/03 02:39:21;;;;;;;0.10;0.10;;;;;;;;;;5112597;28;20045;-88
2023/12/03 02:41:47;;;;;;;0.10;0.10;;;;;;;;;;5096066;28;20039;-88
2023/12/03 02:44:13;;;;;;;0.10;0.10;;;;;;;;;;5095199;28;20043;-88
2023/12/03 02:46:39;;;;;;;0.10;0.10;;;;;;;;;;5095791;28;20040;-88
2023/12/03 02:49:05;;;;;;;0.10;0.10;;;;;;;;;;5096031;28;20368;-88
2023/12/03 02:51:31;;;;;;;1.45;1.10;;;;;;;;;;5095476;28;20047;-88
2023/12/03 02:53:57;;;;;;;0.47;0.40;;;;;;;;;;5112277;28;20039;-87
2023/12/03 02:56:23;;;;;;;1.48;1.48;;;;;;;;;;5112337;28;20118;-87
2023/12/03 02:58:49;;;;;;;0.10;0.10;;;;;;;;;;5095324;28;20035;-88
2023/12/03 03:01:15;;;;;;;4.25;0.63;;;;;;;;;;5095437;28;20031;-87
2023/12/03 03:03:41;;;;;;;0.10;0.10;;;;;;;;;;5095337;28;20047;-88
2023/12/03 03:06:07;;;;;;;0.40;0.40;;;;;;;;;;5095326;28;20116;-88
2023/12/03 03:08:33;;;;;;;0.10;0.10;;;;;;;;;;5095218;28;20126;-88
2023/12/03 03:10:59;;;;;;;0.10;0.10;;;;;;;;;;5095157;28;20122;-89
2023/12/03 03:13:25;;;;;;;0.10;0.10;;;;;;;;;;5094838;28;20040;-88
2023/12/03 03:15:51;;;;;;;0.20;0.20;;;;;;;;;;5095177;28;20046;-88
2023/12/03 03:18:17;;;;;;;0.13;0.13;;;;;;;;;;5094924;28;20475;-89
2023/12/03 03:20:43;;;;;;;0.10;0.10;;;;;;;;;;5094975;28;20035;-89
2023/12/03 03:23:09;;;;;;;0.17;0.17;;;;;;;;;;5094894;28;20459;-89
2023/12/03 03:25:35;;;;;;;0.15;0.15;;;;;;;;;;5094736;28;20035;-89
2023/12/03 03:28:01;;;;;;;0.10;0.10;;;;;;;;;;5111673;28;20036;-88
2023/12/03 03:30:27;;;;;;;1.15;1.15;;;;;;;;;;5094773;28;20390;-89
2023/12/03 03:32:53;;;;;;;0.10;0.10;;;;;;;;;;5094704;28;20040;-89
2023/12/03 03:35:19;;;;;;;0.10;0.10;;;;;;;;;;5095017;28;20039;-88
2023/12/03 03:37:45;;;;;;;0.10;0.10;;;;;;;;;;5094863;28;20489;-88
2023/12/03 03:40:11;;;;;;;0.10;0.10;;;;;;;;;;5094918;28;20047;-88
2023/12/03 03:42:37;;;;;;;0.20;0.20;;;;;;;;;;5095026;28;20468;-88
2023/12/03 03:45:03;;;;;;;0.10;0.10;;;;;;;;;;5094480;28;20150;-88
2023/12/03 03:47:29;;;;;;;0.10;0.10;;;;;;;;;;5094411;28;20035;-89
2023/12/03 03:49:55;;;;;;;0.10;0.10;;;;;;;;;;5094603;28;20111;-89
2023/12/03 03:52:21;;;;;;;0.10;0.10;;;;;;;;;;5094497;28;20047;-88
2023/12/03 03:54:47;;;;;;;0.10;0.10;;;;;;;;;;5094856;28;20493;-88
2023/12/03 03:57:13;;;;;;;0.10;0.10;;;;;;;;;;5094491;28;20043;-88
2023/12/03 03:59:39;;;;;;;0.10;0.10;;;;;;;;;;5094211;28;20032;-88
2023/12/03 04:02:05;;;;;;;0.10;0.10;;;;;;;;;;5094530;28;20055;-88
2023/12/03 04:04:31;;;;;;;0.10;0.10;;;;;;;;;;5094091;28;20051;-88
2023/12/03 04:06:57;;;;;;;0.10;0.10;;;;;;;;;;5094387;28;20464;-88
2023/12/03 04:09:23;;;;;;;0.10;0.10;;;;;;;;;;5094115;28;20112;-89
2023/12/03 04:11:49;;;;;;;0.22;0.22;;;;;;;;;;5094258;28;20475;-88
2023/12/03 04:14:16;;;;;;;0.10;0.10;;;;;;;;;;5094072;28;20039;-89
2023/12/03 04:16:42;;;;;;;0.10;0.10;;;;;;;;;;5094651;28;20035;-88
2023/12/03 04:19:08;;;;;;;0.28;0.28;;;;;;;;;;5094681;28;20379;-88
2023/12/03 04:21:36;;;;;;;0.10;0.10;;;;;;;;;;5094217;28;20039;-88
2023/12/03 04:24:02;;;;;;;0.10;0.10;;;;;;;;;;5094519;28;20047;-88
2023/12/03 04:26:28;;;;;;;0.10;0.10;;;;;;;;;;5094231;28;20047;-89
2023/12/03 04:28:54;;;;;;;0.10;0.10;;;;;;;;;;5110937;28;20035;-88
2023/12/03 04:31:23;;;;;;;1.95;1.85;;;;;;;;;;5094219;28;20032;-87
2023/12/03 04:33:50;;;;;;;0.10;0.10;;;;;;;;;;5094255;28;20039;-88
2023/12/03 04:36:16;;;;;;;0.10;0.10;;;;;;;;;;5111146;28;20526;-86
2023/12/03 04:38:42;;;;;;;0.13;0.13;;;;;;;;;;5093944;28;20506;-88
2023/12/03 04:41:08;;;;;;;0.10;0.10;;;;;;;;;;5093956;28;20039;-88
2023/12/03 04:43:34;;;;;;;0.10;0.10;;;;;;;;;;5093959;28;20042;-88
2023/12/03 04:46:04;;;;;;;0.10;0.10;;;;;;;;;;5094160;28;20031;-88
2023/12/03 04:48:30;;;;;;;0.10;0.10;;;;;;;;;;5093986;28;20138;-88
2023/12/03 04:50:56;;;;;;;0.10;0.10;;;;;;;;;;5094039;28;20066;-88
2023/12/03 04:53:22;;;;;;;0.10;0.10;;;;;;;;;;5093881;28;20040;-88
2023/12/03 04:55:48;;;;;;;0.10;0.10;;;;;;;;;;5093972;28;20551;-87
2023/12/03 04:58:14;;;;;;;0.10;0.10;;;;;;;;;;5094119;28;20043;-88
2023/12/03 05:00:40;;;;;;;0.10;0.10;;;;;;;;;;5093777;28;20040;-88
2023/12/03 05:03:06;;;;;;;0.10;0.10;;;;;;;;;;5093699;28;20388;-88
2023/12/03 05:05:32;;;;;;;0.10;0.10;;;;;;;;;;5093724;28;20050;-87
2023/12/03 05:07:59;;;;;;;0.10;0.10;;;;;;;;;;5096329;28;20043;-88
2023/12/03 05:10:25;;;;;;;0.20;0.20;;;;;;;;;;5097448;28;20044;-88
2023/12/03 05:12:51;;;;;;;0.10;0.10;;;;;;;;;;5097281;28;20100;-88
2023/12/03 05:15:17;;;;;;;0.10;0.10;;;;;;;;;;5097388;28;20546;-88
2023/12/03 05:17:43;;;;;;;0.10;0.10;;;;;;;;;;5097491;28;20042;-88
2023/12/03 05:20:09;;;;;;;0.10;0.10;;;;;;;;;;5114139;28;20409;-88
2023/12/03 05:22:35;;;;;;;0.10;0.10;;;;;;;;;;5097417;28;20044;-87
2023/12/03 05:25:01;;;;;;;0.10;0.10;;;;;;;;;;5097461;28;20046;-88
2023/12/03 05:27:27;;;;;;;0.10;0.10;;;;;;;;;;5097242;28;20066;-88
2023/12/03 05:29:53;;;;;;;0.10;0.10;;;;;;;;;;5097204;28;20043;-88
2023/12/03 05:32:19;;;;;;;0.10;0.10;;;;;;;;;;5097263;28;20031;-88
2023/12/03 05:34:45;;;;;;;0.10;0.10;;;;;;;;;;5114006;28;20097;-88
2023/12/03 05:37:12;;;;;;;0.20;0.20;;;;;;;;;;5113915;28;20031;-87
2023/12/03 05:39:38;;;;;;;0.10;0.10;;;;;;;;;;5114015;28;20402;-88
2023/12/03 05:42:05;;;;;;;0.10;0.10;;;;;;;;;;5097016;28;20035;-87
2023/12/03 05:44:31;;;;;;;0.10;0.10;;;;;;;;;;5097059;28;20062;-88
2023/12/03 05:46:57;;;;;;;0.10;0.10;;;;;;;;;;5096881;28;20483;-87
2023/12/03 05:49:22;;;;;;;0.10;0.10;;;;;;;;;;5096806;28;20044;-87
2023/12/03 05:51:49;;;;;;;0.15;0.15;;;;;;;;;;5096784;28;20065;-88
2023/12/03 05:54:15;;;;;;;0.40;0.40;;;;;;;;;;5096506;28;20107;-87
2023/12/03 05:56:41;;;;;;;0.10;0.10;;;;;;;;;;5113588;28;20058;-87
2023/12/03 05:59:07;;;;;;;0.10;0.10;;;;;;;;;;5096583;28;20031;-88
2023/12/03 06:01:33;;;;;;;0.10;0.10;;;;;;;;;;5096504;28;20038;-87
2023/12/03 06:04:00;;;;;;;0.52;0.30;;;;;;;;;;5096495;28;20405;-88
2023/12/03 06:06:27;;;;;;;0.10;0.10;;;;;;;;;;5096340;28;20049;-88
2023/12/03 06:08:52;;;;;;;0.10;0.10;;;;;;;;;;5096535;28;20067;-88
2023/12/03 06:11:18;;;;;;;0.10;0.10;;;;;;;;;;5096327;28;20067;-87
2023/12/03 06:13:44;;;;;;;0.10;0.10;;;;;;;;;;5096323;28;20082;-88
2023/12/03 06:16:11;;;;;;;0.15;0.15;;;;;;;;;;5096676;28;20038;-88
2023/12/03 06:18:37;;;;;;;0.10;0.10;;;;;;;;;;5095332;28;20068;-88
2023/12/03 06:21:03;;;;;;;0.15;0.15;;;;;;;;;;5096282;28;20447;-89
2023/12/03 06:23:29;;;;;;;0.20;0.20;;;;;;;;;;5096019;28;20043;-89
2023/12/03 06:25:55;;;;;;;0.10;0.10;;;;;;;;;;5096356;28;20376;-89
2023/12/03 06:28:21;;;;;;;0.20;0.20;;;;;;;;;;5113062;28;20097;-89
2023/12/03 06:30:47;;;;;;;0.10;0.10;;;;;;;;;;5096106;28;20447;-89
2023/12/03 06:33:14;;;;;;;0.10;0.10;;;;;;;;;;5096139;28;20043;-88
2023/12/03 06:35:41;;;;;;;0.10;0.10;;;;;;;;;;5096432;28;20074;-88
2023/12/03 06:38:07;;;;;;;0.45;0.45;;;;;;;;;;5095862;28;20047;-88
2023/12/03 06:40:33;;;;;;;0.10;0.10;;;;;;;;;;5095700;28;20035;-88
2023/12/03 06:42:59;;;;;;;0.10;0.10;;;;;;;;;;5095776;28;20054;-88
2023/12/03 06:45:25;;;;;;;0.20;0.20;;;;;;;;;;5095938;28;20047;-89
2023/12/03 06:47:51;;;;;;;0.10;0.10;;;;;;;;;;5095669;28;20099;-89
2023/12/03 06:50:17;;;;;;;0.10;0.10;;;;;;;;;;5095708;28;20039;-88
2023/12/03 06:52:43;;;;;;;0.10;0.10;;;;;;;;;;5095467;28;20035;-88
2023/12/03 06:55:09;;;;;;;0.20;0.20;;;;;;;;;;5095481;28;20036;-88
2023/12/03 06:57:35;;;;;;;0.10;0.10;;;;;;;;;;5095563;28;20130;-88
2023/12/03 07:00:01;;;;;;;0.10;0.10;;;;;;;;;;5095373;28;20062;-88
2023/12/03 07:02:27;;;;;;;0.10;0.10;;;;;;;;;;5095327;28;20039;-88
2023/12/03 07:04:53;;;;;;;0.10;0.10;;;;;;;;;;5095385;28;20088;-88
2023/12/03 07:07:19;;;;;;;0.10;0.10;;;;;;;;;;5095629;28;20188;-88
2023/12/03 07:09:45;;;;;;;0.10;0.10;;;;;;;;;;5095137;28;20036;-88
2023/12/03 07:12:11;;;;;;;0.10;0.10;;;;;;;;;;5095231;28;20036;-88
2023/12/03 07:14:37;;;;;;;0.10;0.10;;;;;;;;;;5095278;28;20032;-88
2023/12/03 07:17:03;;;;;;;0.55;0.40;;;;;;;;;;5095275;28;20478;-88
2023/12/03 07:19:30;;;;;;;0.10;0.10;;;;;;;;;;5111971;28;20043;-88
2023/12/03 07:21:56;;;;;;;0.10;0.10;;;;;;;;;;5112068;28;20036;-88
2023/12/03 07:24:22;;;;;;;0.10;0.10;;;;;;;;;;5095047;28;20040;-88
2023/12/03 07:26:48;;;;;;;0.10;0.10;;;;;;;;;;5095049;28;20112;-89
2023/12/03 07:29:14;;;;;;;0.10;0.10;;;;;;;;;;5094941;28;20047;-87
2023/12/03 07:31:40;;;;;;;0.10;0.10;;;;;;;;;;5094709;28;20069;-87
2023/12/03 07:34:06;;;;;;;0.10;0.10;;;;;;;;;;5094688;28;20047;-87
2023/12/03 07:36:32;;;;;;;0.10;0.10;;;;;;;;;;5111917;28;20039;-87
2023/12/03 07:38:58;;;;;;;0.10;0.10;;;;;;;;;;5094821;28;20502;-88
2023/12/03 07:41:24;;;;;;;0.20;0.20;;;;;;;;;;5094775;28;20043;-89
2023/12/03 07:43:51;;;;;;;0.20;0.20;;;;;;;;;;5094818;28;20407;-89
2023/12/03 07:46:17;;;;;;;0.10;0.10;;;;;;;;;;5094861;28;20068;-89
2023/12/03 07:48:43;;;;;;;1.90;0.47;;;;;;;;;;5111678;28;20035;-90
2023/12/03 07:51:10;;;;;;;0.10;0.10;;;;;;;;;;5094750;28;20398;-89
2023/12/03 07:53:36;;;;;;;0.10;0.10;;;;;;;;;;5094592;28;20051;-89
2023/12/03 07:56:02;;;;;;;0.10;0.10;;;;;;;;;;5094671;28;20039;-89
2023/12/03 07:58:28;;;;;;;0.10;0.10;;;;;;;;;;5094493;28;20036;-89
2023/12/03 08:00:54;;;;;;;0.20;0.20;;;;;;;;;;5094383;28;20039;-89
2023/12/03 08:03:20;;;;;;;0.10;0.10;;;;;;;;;;5111052;28;20063;-90
2023/12/03 08:05:46;;;;;;;0.25;0.25;;;;;;;;;;5094552;28;20053;-88
2023/12/03 08:08:12;;;;;;;0.10;0.10;;;;;;;;;;5094269;28;20040;-87
2023/12/03 08:10:38;;;;;;;0.10;0.10;;;;;;;;;;5094209;28;20040;-88
2023/12/03 08:13:04;;;;;;;0.17;0.17;;;;;;;;;;5094015;28;20134;-86
2023/12/03 08:15:30;;;;;;;0.10;0.10;;;;;;;;;;5094494;28;20068;-89
2023/12/03 08:17:56;;;;;;;0.10;0.10;;;;;;;;;;5094747;28;20039;-89
2023/12/03 08:20:22;;;;;;;0.40;0.40;;;;;;;;;;5095151;28;20181;-90
2023/12/03 08:22:48;;;;;;;0.98;0.85;;;;;;;;;;5094592;28;20547;-91
2023/12/03 08:25:16;;;;;;;0.10;0.10;;;;;;;;;;5094606;28;20036;-87
2023/12/03 08:27:43;;;;;;;0.20;0.20;;;;;;;;;;5094459;28;20408;-88
2023/12/03 08:30:09;;;;;;;0.10;0.10;;;;;;;;;;5093873;28;20130;-88
2023/12/03 08:32:35;;;;;;;0.10;0.10;;;;;;;;;;5093922;28;20126;-88
2023/12/03 08:35:01;;;;;;;0.10;0.10;;;;;;;;;;5094149;28;20079;-88
2023/12/03 08:37:27;;;;;;;0.10;0.10;;;;;;;;;;5094341;28;20036;-89
2023/12/03 08:39:54;;;;;;;0.20;0.20;;;;;;;;;;5093865;28;20509;-89
2023/12/03 08:42:20;;;;;;;0.10;0.10;;;;;;;;;;5095669;28;20046;-89
2023/12/03 08:44:46;;;;;;;0.10;0.10;;;;;;;;;;5098298;28;20039;-89
2023/12/03 08:47:12;;;;;;;0.10;0.10;;;;;;;;;;5098011;28;20046;-88
2023/12/03 08:49:38;;;;;;;0.10;0.10;;;;;;;;;;5097843;28;20043;-89
2023/12/03 08:52:04;;;;;;;0.10;0.10;;;;;;;;;;5100659;28;20043;-90
2023/12/03 08:54:32;;;;;;;0.10;0.10;;;;;;;;;;5097907;28;20502;-89
2023/12/03 08:56:59;;;;;;;0.35;0.35;;;;;;;;;;5097699;28;20036;-89
2023/12/03 08:59:25;;;;;;;0.20;0.20;;;;;;;;;;5097501;28;20039;-89
2023/12/03 09:01:51;;;;;;;0.47;0.47;;;;;;;;;;5097640;27;20115;-90
2023/12/03 09:04:17;;;;;;;0.10;0.10;;;;;;;;;;5118122;27;20055;-90
2023/12/03 09:06:44;;;;;;;0.10;0.10;;;;;;;;;;5118018;27;20043;-89
2023/12/03 09:09:11;;;;;;;0.10;0.10;;;;;;;;;;5117931;27;20050;-90
2023/12/03 09:11:37;;;;;;;0.10;0.10;;;;;;;;;;5118239;27;20126;-89
2023/12/03 09:14:03;;;;;;;0.10;0.10;;;;;;;;;;5117894;27;20066;-90
2023/12/03 09:16:29;;;;;;;0.10;0.10;;;;;;;;;;5118053;27;20042;-91
2023/12/03 09:18:55;;;;;;;0.98;0.95;;;;;;;;;;5118255;27;20394;-91
2023/12/03 09:21:23;;;;;;;0.73;0.73;;;;;;;;;;5118172;27;20050;-91
2023/12/03 09:23:49;;;;;;;0.10;0.10;;;;;;;;;;5118510;27;20047;-92
2023/12/03 09:26:16;;;;;;;0.10;0.10;;;;;;;;;;5101160;27;20442;-91
2023/12/03 09:28:42;;;;;;;0.10;0.10;;;;;;;;;;5118350;27;20047;-91
2023/12/03 09:31:08;;;;;;;0.10;0.10;;;;;;;;;;5118310;27;20049;-92
2023/12/03 09:33:34;;;;;;;0.10;0.10;;;;;;;;;;5118421;27;20043;-92
2023/12/03 09:36:00;;;;;;;0.10;0.10;;;;;;;;;;5101469;27;20035;-92
2023/12/03 09:38:26;;;;;;;0.10;0.10;;;;;;;;;;5101448;27;20084;-92
2023/12/03 09:40:53;;;;;;;0.10;0.10;;;;;;;;;;5101515;27;20038;-93
2023/12/03 09:43:19;;;;;;;0.28;0.28;;;;;;;;;;5118213;27;20046;-93
2023/12/03 09:45:46;;;;;;;0.15;0.15;;;;;;;;;;5118452;27;20386;-92
2023/12/03 09:48:11;;;;;;;0.22;0.22;;;;;;;;;;5101302;27;20042;-91
2023/12/03 09:50:38;;;;;;;0.10;0.10;;;;;;;;;;5117839;27;20375;-91
2023/12/03 09:53:04;;;;;;;0.20;0.20;;;;;;;;;;5100466;27;20501;-92
2023/12/03 09:55:30;;;;;;;0.10;0.10;;;;;;;;;;5117562;27;20035;-92
2023/12/03 09:58:25;;;;;;;0.10;0.10;;;;;;;;;;5103664;27;20042;-95
2023/12/03 10:01:01;;;;;;;0.10;0.10;;;;;;;;;;5122307;27;20054;-90
2023/12/03 10:03:27;;;;;;;0.20;0.20;;;;;;;;;;5116925;27;20137;-89
2023/12/03 10:05:53;;;;;;;0.10;0.10;;;;;;;;;;5116926;27;20039;-90
2023/12/03 10:08:19;;;;;;;0.10;0.10;;;;;;;;;;5133793;27;20443;-90
2023/12/03 10:10:46;;;;;;;0.43;0.43;;;;;;;;;;5099805;27;20070;-90
2023/12/03 10:13:13;;;;;;;0.30;0.30;;;;;;;;;;5117001;27;20135;-91
2023/12/03 10:15:39;;;;;;;0.30;0.30;;;;;;;;;;5117539;27;20039;-92
2023/12/03 10:18:05;;;;;;;0.10;0.10;;;;;;;;;;5117171;27;20080;-93
2023/12/03 10:20:31;;;;;;;3.00;0.57;;;;;;;;;;5100449;27;20046;-92
2023/12/03 10:22:58;;;;;;;0.20;0.20;;;;;;;;;;5100274;27;20039;-92
2023/12/03 10:25:30;;;;;;;0.10;0.10;;;;;;;;;;5100346;27;20474;-93
2023/12/03 10:27:56;;;;;;;0.10;0.10;;;;;;;;;;5117338;27;20043;-90
2023/12/03 10:30:22;;;;;;;0.30;0.30;;;;;;;;;;5116717;27;20466;-90
2023/12/03 10:33:04;;;;;;;0.10;0.10;;;;;;;;;;5100285;27;20043;-94
2023/12/03 10:35:37;;;;;;;0.10;0.10;;;;;;;;;;5118557;27;20331;-91
2023/12/03 10:38:09;;;;;;;0.20;0.20;;;;;;;;;;5116507;27;20446;-90
2023/12/03 10:40:35;;;;;;;0.20;0.20;;;;;;;;;;5117007;27;20450;-90
2023/12/03 10:43:01;;;;;;;0.10;0.10;;;;;;;;;;5099262;27;20458;-91
2023/12/03 10:45:28;;;;;;;0.10;0.10;;;;;;;;;;5100556;27;20082;-91
2023/12/03 10:47:54;;;;;;;0.20;0.20;;;;;;;;;;5096855;27;20039;-90
2023/12/03 10:50:19;;;;;;;0.20;0.20;;;;;;;;;;5108270;27;20043;-89
2023/12/03 10:52:46;;;;;;;0.13;0.13;;;;;;;;;;5098872;27;20058;-91
2023/12/03 10:55:12;;;;;;;0.47;0.47;;;;;;;;;;5127968;27;20034;-90
2023/12/03 10:57:43;;;;;;;0.10;0.10;;;;;;;;;;5121505;27;20039;-89
2023/12/03 11:00:12;;;;;;;0.20;0.20;;;;;;;;;;5095994;28;20486;-91
2023/12/03 11:02:47;;;;;;;0.20;0.20;;;;;;;;;;5095173;28;20051;-90
2023/12/03 11:05:34;;;;;;;0.30;0.30;;;;;;;;;;5078534;28;20135;-88
2023/12/03 11:08:00;;;;;;;0.40;0.40;;;;;;;;;;5113348;28;20466;-87
2023/12/03 11:10:26;;;;;;;0.10;0.10;;;;;;;;;;5095411;28;20126;-89
2023/12/03 11:12:52;;;;;;;0.20;0.20;;;;;;;;;;5079174;28;20088;-90
2023/12/03 11:15:18;;;;;;;0.60;0.50;;;;;;;;;;5094929;28;20502;-89
2023/12/03 11:17:44;;;;;;;0.35;0.35;;;;;;;;;;5078671;28;20126;-89
2023/12/03 11:20:16;;;;;;;0.10;0.10;;;;;;;;;;5081777;28;20039;-90
2023/12/03 11:22:48;;;;;;;0.22;0.22;;;;;;;;;;5095707;28;20039;-90
2023/12/03 11:25:19;;;;;;;0.20;0.20;;;;;;;;;;5108689;27;20046;-89
2023/12/03 11:27:46;;;;;;;0.10;0.10;;;;;;;;;;5116304;27;20133;-92
2023/12/03 11:30:13;;;;;;;0.20;0.20;;;;;;;;;;5098227;27;20082;-90
2023/12/03 11:32:39;;;;;;;0.20;0.20;;;;;;;;;;5116045;27;20053;-89
2023/12/03 11:35:06;;;;;;;0.30;0.30;;;;;;;;;;5115160;27;20043;-90
2023/12/03 11:37:32;;;;;;;1.33;0.38;;;;;;;;;;5098500;27;20046;-90
2023/12/03 11:40:08;;;;;;;0.10;0.10;;;;;;;;;;5115487;27;20451;-90
2023/12/03 11:42:42;;;;;;;0.80;0.30;;;;;;;;;;5115295;27;20091;-90
2023/12/03 11:45:27;;;;;;;0.45;0.30;;;;;;;;;;5131978;27;20074;-90
2023/12/03 11:48:11;;;;;;;0.30;0.30;;;;;;;;;;5132177;27;20038;-90
2023/12/03 11:50:41;;;;;;;0.22;0.22;;;;;;;;;;5127789;27;20036;-93
2023/12/03 11:53:13;;;;;;;0.40;0.40;;;;;;;;;;5096383;28;20058;-90
2023/12/03 11:55:40;;;;;;;0.20;0.20;;;;;;;;;;5078455;28;20387;-90
2023/12/03 11:58:07;;;;;;;0.50;0.50;;;;;;;;;;5077934;28;20042;-90
2023/12/03 12:00:33;;;;;;;0.30;0.30;;;;;;;;;;5094911;28;20035;-91
2023/12/03 12:02:59;;;;;;;0.10;0.10;;;;;;;;;;5094595;28;20063;-91
2023/12/03 12:05:25;;;;;;;0.65;0.47;;;;;;;;;;5111565;28;20063;-91
2023/12/03 12:07:58;;;;;;;0.28;0.28;;;;;;;;;;5094956;28;20075;-90
2023/12/03 12:10:24;;;;;;;0.35;0.35;;;;;;;;;;5078015;28;20051;-91
2023/12/03 12:12:50;;;;;;;0.20;0.20;;;;;;;;;;5078055;28;20043;-91
2023/12/03 12:15:16;;;;;;;0.10;0.10;;;;;;;;;;5078293;28;20040;-91
2023/12/03 12:17:42;;;;;;;0.30;0.30;;;;;;;;;;5087218;27;20110;-89
2023/12/03 12:20:09;;;;;;;0.10;0.10;;;;;;;;;;5101824;27;20130;-89
2023/12/03 12:22:35;;;;;;;0.32;0.32;;;;;;;;;;5128372;27;20133;-89
2023/12/03 12:25:01;;;;;;;0.10;0.10;;;;;;;;;;5139476;27;20508;-90
2023/12/03 12:27:28;;;;;;;0.20;0.20;;;;;;;;;;5122109;27;20122;-90
2023/12/03 12:29:54;;;;;;;0.10;0.10;;;;;;;;;;5117765;27;20069;-90
2023/12/03 12:32:23;;;;;;;1.02;0.77;;;;;;;;;;5092767;28;20043;-89
2023/12/03 12:34:49;;;;;;;0.52;0.52;;;;;;;;;;5104787;27;20070;-91
2023/12/03 12:37:15;;;;;;;0.20;0.20;;;;;;;;;;5083850;28;20377;-92
2023/12/03 12:39:41;;;;;;;0.20;0.20;;;;;;;;;;5098704;28;20038;-89
2023/12/03 12:42:07;;;;;;;0.47;0.47;;;;;;;;;;5102307;27;20514;-91
2023/12/03 12:44:43;;;;;;;0.10;0.10;;;;;;;;;;5097976;28;20130;-91
2023/12/03 12:47:09;;;;;;;0.10;0.10;;;;;;;;;;5087396;28;20039;-91
2023/12/03 12:49:36;;;;;;;0.40;0.25;;;;;;;;;;5097836;28;20122;-89
2023/12/03 12:52:12;;;;;;;0.30;0.30;;;;;;;;;;5095177;27;20134;-91
2023/12/03 12:54:47;;;;;;;0.20;0.20;;;;;;;;;;5100140;27;20605;-91
2023/12/03 12:57:14;;;;;;;0.10;0.10;;;;;;;;;;5090777;27;20031;-90
2023/12/03 12:59:40;;;;;;;0.10;0.10;;;;;;;;;;5106754;27;20493;-90
2023/12/03 13:02:07;;;;;;;0.10;0.10;;;;;;;;;;5103130;27;20668;-91
2023/12/03 13:04:33;;;;;;;0.20;0.20;;;;;;;;;;5098009;27;20440;-88
2023/12/03 13:07:01;;;;;;;0.40;0.40;;;;;;;;;;5101801;27;20211;-90
2023/12/03 13:09:27;;;;;;;0.30;0.30;;;;;;;;;;5118813;27;20050;-90
2023/12/03 13:11:53;;;;;;;0.30;0.30;;;;;;;;;;5080961;27;20043;-90
2023/12/03 13:14:19;;;;;;;0.30;0.30;;;;;;;;;;5101150;27;20402;-90
2023/12/03 13:16:45;;;;;;;0.30;0.30;;;;;;;;;;5101294;27;20039;-90
2023/12/03 13:19:12;;;;;;;1.65;0.35;;;;;;;;;;5092879;27;20063;-89
2023/12/03 13:21:38;;;;;;;0.20;0.20;;;;;;;;;;5117861;27;20375;-88
2023/12/03 13:24:04;;;;;;;0.25;0.25;;;;;;;;;;5135679;27;20063;-96
2023/12/03 13:26:33;;;;;;;0.10;0.10;;;;;;;;;;5121773;27;20051;-96
2023/12/03 13:28:59;;;;;;;0.50;0.50;;;;;;;;;;5083870;28;20051;-90
2023/12/03 13:31:25;;;;;;;0.63;0.45;;;;;;;;;;5097239;28;20036;-90
2023/12/03 13:33:51;;;;;;;0.50;0.50;;;;;;;;;;5112579;27;20131;-89
2023/12/03 13:36:17;;;;;;;0.10;0.10;;;;;;;;;;5117545;27;20126;-89
2023/12/03 13:38:43;;;;;;;0.43;0.43;;;;;;;;;;5117145;27;20046;-89
2023/12/03 13:41:09;;;;;;;0.10;0.10;;;;;;;;;;5100380;27;20517;-89
2023/12/03 13:43:35;;;;;;;2.20;0.30;;;;;;;;;;5116835;27;20035;-89
2023/12/03 13:46:02;;;;;;;0.22;0.20;;;;;;;;;;5117467;27;20125;-89
2023/12/03 13:48:28;;;;;;;0.20;0.20;;;;;;;;;;5088847;28;20044;-89
2023/12/03 13:50:54;;;;;;;1.10;0.73;;;;;;;;;;5096899;28;20183;-89
2023/12/03 13:53:20;;;;;;;0.10;0.10;;;;;;;;;;5079727;28;20043;-89
2023/12/03 13:55:46;;;;;;;0.10;0.10;;;;;;;;;;5113662;27;20035;-90
2023/12/03 13:58:12;;;;;;;0.30;0.25;;;;;;;;;;5096744;28;20039;-89
2023/12/03 14:00:39;;;;;;;0.30;0.30;;;;;;;;;;5096467;27;20046;-89
2023/12/03 14:03:05;;;;;;;0.22;0.22;;;;;;;;;;5096482;28;20067;-89
2023/12/03 14:05:31;;;;;;;0.30;0.30;;;;;;;;;;5096372;28;20098;-89
2023/12/03 14:07:57;;;;;;;0.13;0.13;;;;;;;;;;5079400;28;20096;-89
2023/12/03 14:10:23;;;;;;;0.47;0.38;;;;;;;;;;5092641;28;20486;-88
2023/12/03 14:12:50;;;;;;;0.15;0.15;;;;;;;;;;5096776;28;20036;-90
2023/12/03 14:15:16;;;;;;;0.25;0.25;;;;;;;;;;5096565;28;20035;-89
2023/12/03 14:17:42;;;;;;;0.20;0.20;;;;;;;;;;5099979;27;20031;-91
2023/12/03 14:20:09;;;;;;;0.40;0.40;;;;;;;;;;5099722;27;20043;-91
2023/12/03 14:22:36;;;;;;;0.10;0.10;;;;;;;;;;5100380;27;20470;-90
2023/12/03 14:25:02;;;;;;;0.10;0.10;;;;;;;;;;5100139;27;20484;-91
2023/12/03 14:27:28;;;;;;;0.10;0.10;;;;;;;;;;5116768;27;20039;-90
2023/12/03 14:29:54;;;;;;;0.10;0.10;;;;;;;;;;5111480;27;20039;-89
2023/12/03 14:32:20;;;;;;;0.10;0.10;;;;;;;;;;5092760;28;20039;-90
2023/12/03 14:34:46;;;;;;;0.10;0.10;;;;;;;;;;5078182;28;20039;-90
2023/12/03 14:37:12;;;;;;;0.10;0.10;;;;;;;;;;5096009;28;20036;-90
2023/12/03 14:39:38;;;;;;;1.00;0.20;;;;;;;;;;5093196;28;20430;-90